Incline Creek, Nevada Weather observations

Data are for observation ending at time listed.
 Day   Time    Ave.   Ave.  Ave.  Vector   Max.   Stn.    Total    Solar   Ave.   Snow 
  of    of     Air    Rel.  Wind   Wind    Wind   Baro.  Precip.   Rad.    Soil   Depth
Year   Day     Temp.  Hum.  Speed  Dir.    Gust   Pres.                    Temp.       
2014   (PST)    F      %     mph   deg.    mph     mb.     in.     W/m2     F      in. 
---------------------------------------------------------------------------------------  
 210    4:00   57.9    68    1.2    22      2.3   999.0    0.00       0    999.0   83.9
 210    4:10   57.8    67    0.9    30      1.8   999.0    0.00       0    999.0   83.9
 210    4:20   57.7    68    0.8    26      1.5   999.0    0.00       0    999.0   83.9
 210    4:30   57.7    67    1.1    26      2.0   999.0    0.00       0    999.0   83.9
 210    4:40   57.5    67    1.0    25      2.1   999.0    0.00       0    999.0   83.9
 210    4:50   57.5    67    1.2    28      2.0   999.0    0.00       1    999.0   83.9
 210    5:00   57.6    66    1.3    24      2.1   999.0    0.00       4    999.0   83.9
 210    5:10   57.7    64    1.3    25      2.4   999.0    0.00      12    999.0   83.9
 210    5:20   57.5    64    2.1    28      3.3   999.0    0.00      15    999.0   83.9
 210    5:30   57.3    64    1.6    30      3.6   999.0    0.00      20    999.0   83.9
 210    5:40   57.0    64    2.0    32      3.7   999.0    0.00      28    999.0   83.9
 210    5:50   56.9    65    1.7    26      3.3   999.0    0.00      39    999.0   83.9
 210    6:00   56.5    67    1.1    21      2.0   999.0    0.00      44    999.0   83.9
 210    6:10   56.4    67    1.6    17      2.8   999.0    0.00      52    999.0   83.9
 210    6:20   56.6    68    1.1    25      2.3   999.0    0.00      72    999.0   83.9
 210    6:30   56.9    68    1.2    23      3.6   999.0    0.00      95    999.0   83.9
 210    6:40   57.7    67    0.9    30      2.2   999.0    0.00     197    999.0   83.9
 210    6:50   60.7    61    1.4    26      2.6   999.0    0.00     360    999.0   83.9
 210    7:00   62.2    58    0.8    54      2.4   999.0    0.00     266    999.0   83.9
 210    7:10   64.0    54    1.2    23      2.1   999.0    0.00     344    999.0   83.9
 210    7:20   65.6    49    1.2    33      2.1   999.0    0.00     395    999.0   83.9
 210    7:30   66.7    44    1.3   129      3.9   999.0    0.00     272    999.0   83.9
 210    7:40   66.9    41    2.3   144      4.8   999.0    0.00     439    999.0   83.9
 210    7:50   67.8    37    3.3   158      7.4   999.0    0.00     396    999.0    0.0
 210    8:00   68.9    40    2.8   139      8.3   999.0    0.00     570    999.0   83.9
 210    8:10   67.6    43    5.2   158      8.9   999.0    0.00     596    999.0   83.9
 210    8:20   67.0    47    4.6   162      7.5   999.0    0.00     621    999.0    0.0
 210    8:30   66.6    52    4.7   150      7.8   999.0    0.00     644    999.0   83.9
 210    8:40   67.4    50    4.3   160      9.2   999.0    0.00     686    999.0   83.9
 210    8:50   67.7    50    4.4   148      9.8   999.0    0.00     726    999.0    0.0
 210    9:00   67.3    50    4.6   154      7.9   999.0    0.00     628    999.0   83.9
 210    9:10   67.2    44    3.8   168      7.4   999.0    0.00     496    999.0   83.9
 210    9:20   67.6    44    4.6   163      7.7   999.0    0.00     513    999.0   83.9
 210    9:30   68.1    43    4.6   158      9.7   999.0    0.00     423    999.0    0.0
 210    9:40   68.2    42    3.9   165      7.9   999.0    0.00     437    999.0    0.0
 210    9:50   68.6    39    4.1   149      7.3   999.0    0.00     456    999.0    0.0
 210   10:00   68.8    40    3.8   156      7.4   999.0    0.00     592    999.0    0.0
 210   10:10   68.9    40    3.6   158      7.6   999.0    0.00     379    999.0    0.0
 210   10:20   69.2    39    3.7   166      7.7   999.0    0.00     841    999.0   83.9
 210   10:30   71.2    37    2.8   156      7.7   999.0    0.00     851    999.0    0.0
 210   10:40   72.5    35    3.8   145      8.6   999.0    0.00     949    999.0   83.9
 210   10:50   72.6    35    4.7   152      9.2   999.0    0.00     995    999.0   83.9
 210   11:00   72.9    34    6.0   154     11.3   999.0    0.00     987    999.0   83.9
 210   11:10   72.8    33    5.3   162      9.8   999.0    0.00     997    999.0    0.0
 210   11:20   73.3    32    5.1   156     10.4   999.0    0.00    1012    999.0    0.0
 210   11:30   73.2    31    5.4   160     10.8   999.0    0.00    1053    999.0    0.0
 210   11:40   73.3    32    5.3   152     10.1   999.0    0.00     818    999.0    0.0
 210   11:50   72.4    33    3.1   138     10.7   999.0    0.00     188    999.0    0.0
 210   12:00   71.9    34    1.8    76      3.8   999.0    0.00     170    999.0    0.0
 210   12:10   72.0    35    2.0    50      3.5   999.0    0.00     154    999.0    0.0
 210   12:20   72.2    38    0.7    40      3.1   999.0    0.00     209    999.0    0.0
 210   12:30   70.5    50    2.4    36      7.9   999.0    0.00     274    999.0    0.0
 210   12:40   67.8    53    4.0    37      7.7   999.0    0.00     322    999.0    0.0
 210   12:50   68.4    50    3.8    45      7.8   999.0    0.00     393    999.0   83.9
 210   13:00   69.9    45    3.8    53      6.9   999.0    0.00     446    999.0    0.0
 210   13:10   72.2    40    3.5    62      8.1   999.0    0.00     565    999.0   83.9
 210   13:20   74.7    33    3.7    63      7.6   999.0    0.00    1055    999.0    0.0
 210   13:30   76.7    28    3.4    60      9.6   999.0    0.00     475    999.0    0.0
 210   13:40   75.5    28    2.6    52      6.8   999.0    0.00     191    999.0    0.0
 210   13:50   74.7    27    2.3    62      6.1   999.0    0.00     186    999.0    0.0
 210   14:00   75.8    25    3.4    53      8.3   999.0    0.00     950    999.0    0.0
 210   14:10   77.9    23    3.4   126      6.7   999.0    0.00     785    999.0    0.0
 210   14:20   77.7    23    2.4   166      6.6   999.0    0.00     274    999.0    0.0
 210   14:30   76.2    24    2.9   145      6.9   999.0    0.00     187    999.0    0.0
 210   14:40   75.7    26    2.0   159      5.0   999.0    0.00     135    999.0    0.0
 210   14:50   75.3    26    1.0   195      3.8   999.0    0.00     129    999.0    0.0
 210   15:00   75.0    28    1.5    53      3.1   999.0    0.00     110    999.0    0.0
 210   15:10   74.0    28    1.3    52      2.6   999.0    0.00      87    999.0    0.0
 210   15:20   73.8    29    0.9    57      2.3   999.0    0.00     112    999.0    0.0
 210   15:30   73.9    28    1.6    57      3.7   999.0    0.00     207    999.0    0.0
 210   15:40   74.5    27    1.7    58      4.2   999.0    0.00     301    999.0    0.0
 210   15:50   75.0    26    1.4     5      3.8   999.0    0.00     257    999.0    0.0
 210   16:00   74.9    28    4.3   166      8.4   999.0    0.00     281    999.0    0.0
 210   16:10   74.1    30    2.7   142      6.8   999.0    0.00     241    999.0    0.0
 210   16:20   73.9    29    3.5   157      6.0   999.0    0.00     241    999.0    0.0
 210   16:30   74.0    28    3.2   150      5.8   999.0    0.00     222    999.0    0.0
 210   16:40   73.8    28    3.4   164      6.5   999.0    0.00     141    999.0    0.0
 210   16:50   73.8    28    2.5   150      6.3   999.0    0.00     141    999.0    0.0
 210   17:00   73.1    31    3.4   143      7.2   999.0    0.00     104    999.0    0.0
 210   17:10   71.9    36    1.9    76      4.6   999.0    0.00      91    999.0    0.0
 210   17:20   71.6    35    1.7    84      3.9   999.0    0.00      73    999.0    0.0
 210   17:30   71.0    37    2.1    64      5.6   999.0    0.00      72    999.0    0.0
 210   17:40   69.0    47    2.5   113      6.7   999.0    0.00      74    999.0    0.0
 210   17:50   67.1    52    2.8    42      5.5   999.0    0.00      95    999.0    0.0
 210   18:00   66.8    53    3.3    24      7.7   999.0    0.00      76    999.0   83.9
 210   18:10   66.4    53    1.9    50      5.7   999.0    0.00      70    999.0   83.9
 210   18:20   66.4    51    1.3    63      2.8   999.0    0.00      72    999.0   83.9
 210   18:30   66.6    48    1.7    53      3.6   999.0    0.00      56    999.0   83.9
 210   18:40   66.3    49    1.2    22      3.9   999.0    0.00      25    999.0   83.9
 210   18:50   65.5    52    0.4    48      1.3   999.0    0.00      11    999.0    0.0
 210   19:00   64.2    56    1.2    23      2.2   999.0    0.00       5    999.0   83.9
 210   19:10   63.1    60    0.4    43      1.3   999.0    0.00       2    999.0    0.0
 210   19:20   61.8    63    0.8    43      1.6   999.0    0.00       0    999.0    0.0
 210   19:30   61.1    64    1.3    18      3.2   999.0    0.00       0    999.0   83.9
 210   19:40   61.2    61    1.0     7      2.1   999.0    0.00       0    999.0    0.0
 210   19:50   61.1    59    1.3   343      1.9   999.0    0.00       0    999.0   83.9
 210   20:00   61.1    59    1.2     2      2.7   999.0    0.00       0    999.0   83.9
 210   20:10   61.0    58    0.9     4      2.3   999.0    0.00       0    999.0   83.9
 210   20:20   60.7    59    1.7    18      2.7   999.0    0.00       0    999.0   83.9
 210   20:30   60.5    59    1.5    20      2.5   999.0    0.00       0    999.0    0.0
 210   20:40   60.1    60    1.7    20      2.6   999.0    0.00       0    999.0    0.0
 210   20:50   59.6    60    2.2    13      3.5   999.0    0.00       0    999.0   83.9
 210   21:00   59.4    60    1.3    25      3.4   999.0    0.00       0    999.0    0.0
 210   21:10   59.0    60    2.3    25      3.8   999.0    0.00       0    999.0    0.0
 210   21:20   58.7    60    2.2    12      3.6   999.0    0.00       0    999.0    0.0
 210   21:30   58.1    62    1.9    20      2.8   999.0    0.00       0    999.0    0.0
 210   21:40   57.6    63    1.9    24      3.2   999.0    0.00       0    999.0    0.0
 210   21:50   57.1    62    2.1    18      4.2   999.0    0.00       0    999.0   83.9
 210   22:00   56.8    64    2.5    15      3.5   999.0    0.00       0    999.0    0.0
 210   22:10   56.6    64    1.9    20      2.7   999.0    0.00       0    999.0   83.9
 210   22:20   56.4    63    2.2     2      4.2   999.0    0.00       0    999.0    0.0
 210   22:30   57.8    58    3.1   325      5.0   999.0    0.00       0    999.0   83.9
 210   22:40   56.9    62    2.8    17      3.8   999.0    0.00       0    999.0    0.0
 210   22:50   56.0    63    2.3    20      4.0   999.0    0.00       0    999.0    0.0
 210   23:00   55.4    65    1.8    19      4.2   999.0    0.00       0    999.0    0.0
 210   23:10   55.5    64    2.2   342      3.4   999.0    0.00       0    999.0    0.0
 210   23:20   55.0    65    2.6    12      3.8   999.0    0.00       0    999.0    0.0
 210   23:30   54.4    67    1.6    27      3.6   999.0    0.00       0    999.0    0.0
 210   23:40   54.0    68    2.1    24      3.5   999.0    0.00       0    999.0    0.0
 210   23:50   53.8    68    1.5    30      2.2   999.0    0.00       0    999.0    0.0
 211    0:00   53.4    69    1.4    24      2.6   999.0    0.00       0    999.0   83.9
 211    0:10   53.6    68    2.0    16      3.7   999.0    0.00       0    999.0    0.0
 211    0:20   53.2    69    1.8    20      3.0   999.0    0.00       0    999.0    0.0
 211    0:30   53.1    68    2.6    23      3.9   999.0    0.00       0    999.0    0.0
 211    0:40   52.8    69    1.9    35      3.2   999.0    0.00       0    999.0    0.0
 211    0:50   52.5    69    2.2    27      3.6   999.0    0.00       0    999.0    0.0
 211    1:00   52.4    70    2.4    34      3.7   999.0    0.00       0    999.0    0.0
 211    1:10   52.1    70    1.8    28      2.6   999.0    0.00       0    999.0   83.9
 211    1:20   52.1    70    2.5    14      4.3   999.0    0.00       0    999.0    0.0
 211    1:30   51.9    70    2.4    23      3.9   999.0    0.00       0    999.0    0.0
 211    1:40   51.5    71    2.0    28      2.9   999.0    0.00       0    999.0   83.9
 211    1:50   51.4    71    2.4    22      3.4   999.0    0.00       0    999.0    0.0
 211    2:00   51.4    70    2.4    24      3.9   999.0    0.00       0    999.0    0.0
 211    2:10   51.5    70    1.9    25      3.1   999.0    0.00       0    999.0    0.0
 211    2:20   51.3    71    1.7    26      2.4   999.0    0.00       0    999.0   83.9
 211    2:30   51.4    70    1.9    28      3.1   999.0    0.00       0    999.0    0.0
 211    2:40   51.5    70    2.7    26      4.0   999.0    0.00       0    999.0   83.9
 211    2:50   51.4    70    2.5    31      3.9   999.0    0.00       0    999.0    0.0
 211    3:00   51.0    72    1.7    36      2.4   999.0    0.00       0    999.0    0.0
 211    3:10   50.9    73    2.0    33      2.9   999.0    0.00       0    999.0    0.0
 211    3:20   51.0    73    2.3    32      3.1   999.0    0.00       0    999.0   83.9
 211    3:30   51.0    73    2.2    31      3.4   999.0    0.00       0    999.0   83.9
 211    3:40   50.9    74    1.7    34      2.3   999.0    0.00       0    999.0    0.0
 211    3:50   50.9    74    2.0    28      3.4   999.0    0.00       0    999.0    0.0

Return to Incline Creek graphs page.


Western Regional Climate Center,wrcc@dri.edu